KMTP/MTP METAR and TAF weather

Enter ICAO airport designator
Station Type Date Time Source
KMTP METAR 2019/08/19 06:54 UTC NOAA

KMTP 190654Z AUTO 21006KT 24/23 A2997 RMK AO1 SLP148 T02390233 $


Station Type Date Time Source
KMTP Decoded METAR 2019/08/19 06:54 UTC NOAA

Station name not available
Aug 19, 2019 - 02:54 AM EDT / 2019.08.19 0654 UTC
Wind: from the SSW (210 degrees) at 7 MPH (6 KT):0
Temperature: 75.0 F (23.9 C)
Dew Point: 73.9 F (23.3 C)
Relative Humidity: 96%
Pressure (altimeter): 29.97 in. Hg (1014 hPa)
ob: KMTP 190654Z AUTO 21006KT 24/23 A2997 RMK AO1 SLP148 T02390233
cycle: 7

Station Type Date Time Source
KMTP TAF UTC NOAA

Error!

Example: see airport list